KMWA/MWA METAR and TAF weather

Enter ICAO airport designator
Station Type Date Time Source
KMWA METAR 2020/09/19 05:35 UTC NOAA

KMWA 190535Z AUTO 02005KT 10SM CLR 10/07 A3029 RMK AO2 T00970069


Station Type Date Time Source
KMWA Decoded METAR 2020/09/19 05:35 UTC NOAA

Marion, Williamson County Regional Airport, IL, United States (KMWA) 37-45-01N 089-00-04W
Sep 19, 2020 - 01:35 AM EDT / 2020.09.19 0535 UTC
Wind: from the NNE (020 degrees) at 6 MPH (5 KT):0
Visibility: 10 mile(s):0
Sky conditions: clear
Temperature: 49.5 F (9.7 C)
Dew Point: 44.4 F (6.9 C)
Relative Humidity: 82%
Pressure (altimeter): 30.29 in. Hg (1025 hPa)
ob: KMWA 190535Z AUTO 02005KT 10SM CLR 10/07 A3029 RMK AO2 T00970069
cycle: 5

Station Type Date Time Source
KMWA TAF UTC NOAA

Error!

Example: see airport list